sensor_id;sensor_type;location;lat;lon;timestamp;temperature;humidity
40053;DHT22;25758;48.200;16.338;2023-02-11T00:00:15;3.10;91.20
40053;DHT22;25758;48.200;16.338;2023-02-11T00:02:40;3.10;91.20
40053;DHT22;25758;48.200;16.338;2023-02-11T00:05:06;3.10;91.30
40053;DHT22;25758;48.200;16.338;2023-02-11T00:07:33;3.10;91.40
40053;DHT22;25758;48.200;16.338;2023-02-11T00:09:59;3.10;91.60
40053;DHT22;25758;48.200;16.338;2023-02-11T00:12:27;3.10;91.60
40053;DHT22;25758;48.200;16.338;2023-02-11T00:14:53;3.10;91.70
40053;DHT22;25758;48.200;16.338;2023-02-11T00:17:19;3.10;91.70
40053;DHT22;25758;48.200;16.338;2023-02-11T00:19:49;3.10;91.60
40053;DHT22;25758;48.200;16.338;2023-02-11T00:22:15;3.10;91.70
40053;DHT22;25758;48.200;16.338;2023-02-11T00:24:40;3.10;91.70
40053;DHT22;25758;48.200;16.338;2023-02-11T00:27:06;3.10;91.80
40053;DHT22;25758;48.200;16.338;2023-02-11T00:29:32;3.10;91.80
40053;DHT22;25758;48.200;16.338;2023-02-11T00:31:57;3.10;91.80
40053;DHT22;25758;48.200;16.338;2023-02-11T00:34:23;3.10;92.00
40053;DHT22;25758;48.200;16.338;2023-02-11T00:36:49;3.10;92.00
40053;DHT22;25758;48.200;16.338;2023-02-11T00:39:14;3.10;92.00
40053;DHT22;25758;48.200;16.338;2023-02-11T00:41:40;3.10;92.10
40053;DHT22;25758;48.200;16.338;2023-02-11T00:44:06;3.10;92.10
40053;DHT22;25758;48.200;16.338;2023-02-11T00:46:31;3.10;92.10
40053;DHT22;25758;48.200;16.338;2023-02-11T00:48:57;3.10;92.10
40053;DHT22;25758;48.200;16.338;2023-02-11T00:51:24;3.10;92.10
40053;DHT22;25758;48.200;16.338;2023-02-11T00:53:50;3.10;92.10
40053;DHT22;25758;48.200;16.338;2023-02-11T00:56:15;3.10;92.10
40053;DHT22;25758;48.200;16.338;2023-02-11T00:58:41;3.10;92.00
40053;DHT22;25758;48.200;16.338;2023-02-11T01:01:07;3.10;92.00
40053;DHT22;25758;48.200;16.338;2023-02-11T01:03:33;3.10;92.00
40053;DHT22;25758;48.200;16.338;2023-02-11T01:05:59;3.10;92.00
40053;DHT22;25758;48.200;16.338;2023-02-11T01:08:24;3.10;92.20
40053;DHT22;25758;48.200;16.338;2023-02-11T01:11:02;3.10;92.00
40053;DHT22;25758;48.200;16.338;2023-02-11T01:13:29;3.20;92.20
40053;DHT22;25758;48.200;16.338;2023-02-11T01:15:55;3.10;92.00
40053;DHT22;25758;48.200;16.338;2023-02-11T01:18:21;3.10;91.90
40053;DHT22;25758;48.200;16.338;2023-02-11T01:20:47;3.10;92.10
40053;DHT22;25758;48.200;16.338;2023-02-11T01:23:12;3.10;92.30
40053;DHT22;25758;48.200;16.338;2023-02-11T01:25:38;3.00;92.60
40053;DHT22;25758;48.200;16.338;2023-02-11T01:28:04;3.00;92.60
40053;DHT22;25758;48.200;16.338;2023-02-11T01:30:29;3.00;92.90
40053;DHT22;25758;48.200;16.338;2023-02-11T01:32:55;3.00;93.00
40053;DHT22;25758;48.200;16.338;2023-02-11T01:35:21;3.00;92.90
40053;DHT22;25758;48.200;16.338;2023-02-11T01:37:46;3.00;93.00
40053;DHT22;25758;48.200;16.338;2023-02-11T01:40:14;3.00;93.00
40053;DHT22;25758;48.200;16.338;2023-02-11T01:42:41;3.00;93.30
40053;DHT22;25758;48.200;16.338;2023-02-11T01:48:26;3.00;93.90
40053;DHT22;25758;48.200;16.338;2023-02-11T01:50:58;2.90;94.20
40053;DHT22;25758;48.200;16.338;2023-02-11T01:53:25;2.90;94.30
40053;DHT22;25758;48.200;16.338;2023-02-11T01:56:10;2.90;94.60
40053;DHT22;25758;48.200;16.338;2023-02-11T01:58:58;2.90;94.80
40053;DHT22;25758;48.200;16.338;2023-02-11T02:01:27;2.90;95.00
40053;DHT22;25758;48.200;16.338;2023-02-11T02:03:56;2.90;94.80
40053;DHT22;25758;48.200;16.338;2023-02-11T02:06:33;2.90;95.10
40053;DHT22;25758;48.200;16.338;2023-02-11T02:09:08;2.90;95.30
40053;DHT22;25758;48.200;16.338;2023-02-11T02:11:37;2.80;95.60
40053;DHT22;25758;48.200;16.338;2023-02-11T02:14:03;2.80;95.60
40053;DHT22;25758;48.200;16.338;2023-02-11T02:16:32;2.80;95.80
40053;DHT22;25758;48.200;16.338;2023-02-11T02:38:00;2.60;97.50
40053;DHT22;25758;48.200;16.338;2023-02-11T02:40:40;2.60;97.80
40053;DHT22;25758;48.200;16.338;2023-02-11T02:43:08;2.60;98.00
40053;DHT22;25758;48.200;16.338;2023-02-11T02:45:35;2.60;98.30
40053;DHT22;25758;48.200;16.338;2023-02-11T02:48:00;2.60;98.70
40053;DHT22;25758;48.200;16.338;2023-02-11T02:50:30;2.60;98.90
40053;DHT22;25758;48.200;16.338;2023-02-11T03:03:54;2.50;99.90
40053;DHT22;25758;48.200;16.338;2023-02-11T03:06:51;2.50;99.90
40053;DHT22;25758;48.200;16.338;2023-02-11T03:09:28;2.50;99.90
40053;DHT22;25758;48.200;16.338;2023-02-11T03:11:55;2.50;99.90
40053;DHT22;25758;48.200;16.338;2023-02-11T03:14:21;2.50;99.90
40053;DHT22;25758;48.200;16.338;2023-02-11T03:16:48;2.50;99.90
40053;DHT22;25758;48.200;16.338;2023-02-11T03:19:23;2.50;99.90
40053;DHT22;25758;48.200;16.338;2023-02-11T03:21:51;2.50;99.90
40053;DHT22;25758;48.200;16.338;2023-02-11T03:24:29;2.60;99.90
40053;DHT22;25758;48.200;16.338;2023-02-11T03:27:06;2.60;99.90
40053;DHT22;25758;48.200;16.338;2023-02-11T03:29:44;2.60;99.90
40053;DHT22;25758;48.200;16.338;2023-02-11T03:32:29;2.60;99.90
40053;DHT22;25758;48.200;16.338;2023-02-11T03:35:06;2.60;99.90
40053;DHT22;25758;48.200;16.338;2023-02-11T03:37:58;2.70;99.90
40053;DHT22;25758;48.200;16.338;2023-02-11T03:40:27;2.70;99.90
40053;DHT22;25758;48.200;16.338;2023-02-11T03:43:01;2.70;99.90
40053;DHT22;25758;48.200;16.338;2023-02-11T03:45:28;2.70;99.90
40053;DHT22;25758;48.200;16.338;2023-02-11T03:47:59;2.70;99.90
40053;DHT22;25758;48.200;16.338;2023-02-11T03:50:26;2.70;99.90
40053;DHT22;25758;48.200;16.338;2023-02-11T03:52:54;2.70;99.90
40053;DHT22;25758;48.200;16.338;2023-02-11T03:55:22;2.70;99.90
40053;DHT22;25758;48.200;16.338;2023-02-11T03:57:50;2.70;99.90
40053;DHT22;25758;48.200;16.338;2023-02-11T04:00:16;2.70;99.90
40053;DHT22;25758;48.200;16.338;2023-02-11T04:02:42;2.80;99.90
40053;DHT22;25758;48.200;16.338;2023-02-11T04:05:11;2.80;99.90
40053;DHT22;25758;48.200;16.338;2023-02-11T04:07:37;2.80;99.90
40053;DHT22;25758;48.200;16.338;2023-02-11T04:10:03;2.80;99.90
40053;DHT22;25758;48.200;16.338;2023-02-11T04:12:29;2.80;99.90
40053;DHT22;25758;48.200;16.338;2023-02-11T04:14:54;2.80;99.90
40053;DHT22;25758;48.200;16.338;2023-02-11T04:17:20;2.80;99.90
40053;DHT22;25758;48.200;16.338;2023-02-11T04:19:46;2.80;99.90
40053;DHT22;25758;48.200;16.338;2023-02-11T04:22:12;2.80;99.90
40053;DHT22;25758;48.200;16.338;2023-02-11T04:24:37;2.80;99.90
40053;DHT22;25758;48.200;16.338;2023-02-11T04:27:03;2.80;99.90
40053;DHT22;25758;48.200;16.338;2023-02-11T04:29:29;2.80;99.90
40053;DHT22;25758;48.200;16.338;2023-02-11T04:31:54;2.80;99.90
40053;DHT22;25758;48.200;16.338;2023-02-11T04:34:21;2.80;99.90
40053;DHT22;25758;48.200;16.338;2023-02-11T04:36:46;2.80;99.90
40053;DHT22;25758;48.200;16.338;2023-02-11T04:39:12;2.80;99.90
40053;DHT22;25758;48.200;16.338;2023-02-11T04:41:38;2.80;99.90
40053;DHT22;25758;48.200;16.338;2023-02-11T04:44:04;2.80;99.90
40053;DHT22;25758;48.200;16.338;2023-02-11T04:46:30;2.90;99.90
40053;DHT22;25758;48.200;16.338;2023-02-11T04:48:55;2.80;99.90
40053;DHT22;25758;48.200;16.338;2023-02-11T04:51:21;2.90;99.90
40053;DHT22;25758;48.200;16.338;2023-02-11T04:53:47;2.90;99.90
40053;DHT22;25758;48.200;16.338;2023-02-11T04:56:13;2.90;99.90
40053;DHT22;25758;48.200;16.338;2023-02-11T04:58:38;2.90;99.90
40053;DHT22;25758;48.200;16.338;2023-02-11T05:01:12;2.90;99.90
40053;DHT22;25758;48.200;16.338;2023-02-11T05:03:38;2.90;99.90
40053;DHT22;25758;48.200;16.338;2023-02-11T05:06:04;2.90;99.90
40053;DHT22;25758;48.200;16.338;2023-02-11T05:08:30;3.00;99.90
40053;DHT22;25758;48.200;16.338;2023-02-11T05:10:56;2.90;99.90
40053;DHT22;25758;48.200;16.338;2023-02-11T05:13:22;2.90;99.90
40053;DHT22;25758;48.200;16.338;2023-02-11T05:15:48;2.90;99.90
40053;DHT22;25758;48.200;16.338;2023-02-11T05:18:13;3.00;99.90
40053;DHT22;25758;48.200;16.338;2023-02-11T05:20:40;3.10;99.90
40053;DHT22;25758;48.200;16.338;2023-02-11T05:23:06;3.10;99.90
40053;DHT22;25758;48.200;16.338;2023-02-11T05:25:32;3.10;99.90
40053;DHT22;25758;48.200;16.338;2023-02-11T05:27:58;3.10;99.90
40053;DHT22;25758;48.200;16.338;2023-02-11T05:30:23;3.10;99.90
40053;DHT22;25758;48.200;16.338;2023-02-11T05:32:49;3.10;99.90
40053;DHT22;25758;48.200;16.338;2023-02-11T05:35:15;3.10;99.90
40053;DHT22;25758;48.200;16.338;2023-02-11T05:37:41;3.10;99.90
40053;DHT22;25758;48.200;16.338;2023-02-11T05:40:07;3.10;99.90
40053;DHT22;25758;48.200;16.338;2023-02-11T05:42:32;3.20;99.90
40053;DHT22;25758;48.200;16.338;2023-02-11T05:44:58;3.20;99.90
40053;DHT22;25758;48.200;16.338;2023-02-11T05:47:24;3.20;99.90
40053;DHT22;25758;48.200;16.338;2023-02-11T05:49:50;3.30;99.90
40053;DHT22;25758;48.200;16.338;2023-02-11T05:52:18;3.20;99.90
40053;DHT22;25758;48.200;16.338;2023-02-11T05:54:44;3.20;99.90
40053;DHT22;25758;48.200;16.338;2023-02-11T05:57:09;3.20;99.90
40053;DHT22;25758;48.200;16.338;2023-02-11T05:59:35;3.20;99.90
40053;DHT22;25758;48.200;16.338;2023-02-11T06:02:01;3.20;99.90
40053;DHT22;25758;48.200;16.338;2023-02-11T06:04:26;3.20;99.90
40053;DHT22;25758;48.200;16.338;2023-02-11T06:06:52;3.10;99.90
40053;DHT22;25758;48.200;16.338;2023-02-11T06:09:18;3.10;99.90
40053;DHT22;25758;48.200;16.338;2023-02-11T06:11:43;3.20;99.90
40053;DHT22;25758;48.200;16.338;2023-02-11T06:14:09;3.20;99.90
40053;DHT22;25758;48.200;16.338;2023-02-11T06:16:35;3.20;99.90
40053;DHT22;25758;48.200;16.338;2023-02-11T06:19:01;3.10;99.90
40053;DHT22;25758;48.200;16.338;2023-02-11T06:21:27;3.20;99.90
40053;DHT22;25758;48.200;16.338;2023-02-11T06:23:52;3.20;99.90
40053;DHT22;25758;48.200;16.338;2023-02-11T06:26:20;3.30;99.90
40053;DHT22;25758;48.200;16.338;2023-02-11T06:28:46;3.20;99.90
40053;DHT22;25758;48.200;16.338;2023-02-11T06:31:13;3.20;99.90
40053;DHT22;25758;48.200;16.338;2023-02-11T06:33:39;3.20;99.90
40053;DHT22;25758;48.200;16.338;2023-02-11T06:36:12;3.30;99.90
40053;DHT22;25758;48.200;16.338;2023-02-11T06:38:45;3.30;99.90
40053;DHT22;25758;48.200;16.338;2023-02-11T06:41:12;3.30;99.90
40053;DHT22;25758;48.200;16.338;2023-02-11T06:43:39;3.30;99.90
40053;DHT22;25758;48.200;16.338;2023-02-11T06:46:05;3.30;99.90
40053;DHT22;25758;48.200;16.338;2023-02-11T06:48:30;3.30;99.90
40053;DHT22;25758;48.200;16.338;2023-02-11T06:51:00;3.40;99.90
40053;DHT22;25758;48.200;16.338;2023-02-11T06:53:26;3.40;99.90
40053;DHT22;25758;48.200;16.338;2023-02-11T06:55:51;3.40;99.90
40053;DHT22;25758;48.200;16.338;2023-02-11T06:58:17;3.40;99.90
40053;DHT22;25758;48.200;16.338;2023-02-11T07:00:42;3.40;99.90
40053;DHT22;25758;48.200;16.338;2023-02-11T07:03:08;3.40;99.90
40053;DHT22;25758;48.200;16.338;2023-02-11T07:05:34;3.40;99.90
40053;DHT22;25758;48.200;16.338;2023-02-11T07:07:59;3.50;99.90
40053;DHT22;25758;48.200;16.338;2023-02-11T07:10:25;3.50;99.90
40053;DHT22;25758;48.200;16.338;2023-02-11T07:12:50;3.50;99.90
40053;DHT22;25758;48.200;16.338;2023-02-11T07:15:16;3.60;99.90
40053;DHT22;25758;48.200;16.338;2023-02-11T07:17:42;3.70;99.90
40053;DHT22;25758;48.200;16.338;2023-02-11T07:20:08;3.70;99.90
40053;DHT22;25758;48.200;16.338;2023-02-11T07:22:36;3.70;99.80
40053;DHT22;25758;48.200;16.338;2023-02-11T07:25:02;3.80;99.80
40053;DHT22;25758;48.200;16.338;2023-02-11T07:27:28;3.80;99.40
40053;DHT22;25758;48.200;16.338;2023-02-11T07:29:54;3.90;99.30
40053;DHT22;25758;48.200;16.338;2023-02-11T07:32:20;3.90;99.20
40053;DHT22;25758;48.200;16.338;2023-02-11T07:34:46;3.90;98.90
40053;DHT22;25758;48.200;16.338;2023-02-11T07:37:12;3.90;98.80
40053;DHT22;25758;48.200;16.338;2023-02-11T07:39:38;4.00;98.30
40053;DHT22;25758;48.200;16.338;2023-02-11T07:42:04;4.10;98.30
40053;DHT22;25758;48.200;16.338;2023-02-11T07:44:37;4.10;98.20
40053;DHT22;25758;48.200;16.338;2023-02-11T07:47:03;4.20;98.00
40053;DHT22;25758;48.200;16.338;2023-02-11T07:49:29;4.20;97.70
40053;DHT22;25758;48.200;16.338;2023-02-11T07:51:54;4.30;97.50
40053;DHT22;25758;48.200;16.338;2023-02-11T07:54:20;4.30;97.50
40053;DHT22;25758;48.200;16.338;2023-02-11T07:56:46;4.30;97.10
40053;DHT22;25758;48.200;16.338;2023-02-11T07:59:11;4.40;97.00
40053;DHT22;25758;48.200;16.338;2023-02-11T08:01:37;4.40;97.00
40053;DHT22;25758;48.200;16.338;2023-02-11T08:04:03;4.40;96.90
40053;DHT22;25758;48.200;16.338;2023-02-11T08:06:31;4.50;96.50
40053;DHT22;25758;48.200;16.338;2023-02-11T08:08:57;4.50;96.30
40053;DHT22;25758;48.200;16.338;2023-02-11T08:11:27;4.60;96.20
40053;DHT22;25758;48.200;16.338;2023-02-11T08:13:54;4.60;96.00
40053;DHT22;25758;48.200;16.338;2023-02-11T08:16:31;4.60;95.60
40053;DHT22;25758;48.200;16.338;2023-02-11T08:18:59;4.70;95.50
40053;DHT22;25758;48.200;16.338;2023-02-11T08:21:27;4.70;95.40
40053;DHT22;25758;48.200;16.338;2023-02-11T08:24:00;4.70;95.30
40053;DHT22;25758;48.200;16.338;2023-02-11T08:26:29;4.70;95.20
40053;DHT22;25758;48.200;16.338;2023-02-11T08:28:57;4.70;95.30
40053;DHT22;25758;48.200;16.338;2023-02-11T08:31:33;4.70;95.20
40053;DHT22;25758;48.200;16.338;2023-02-11T08:33:59;4.70;95.20
40053;DHT22;25758;48.200;16.338;2023-02-11T08:36:29;4.80;95.00
40053;DHT22;25758;48.200;16.338;2023-02-11T08:38:57;4.70;95.00
40053;DHT22;25758;48.200;16.338;2023-02-11T08:41:24;4.70;95.10
40053;DHT22;25758;48.200;16.338;2023-02-11T08:43:50;4.80;95.00
40053;DHT22;25758;48.200;16.338;2023-02-11T08:46:18;4.80;94.80
40053;DHT22;25758;48.200;16.338;2023-02-11T08:48:45;4.90;94.70
40053;DHT22;25758;48.200;16.338;2023-02-11T08:51:20;5.00;94.50
40053;DHT22;25758;48.200;16.338;2023-02-11T08:53:46;5.00;94.60
40053;DHT22;25758;48.200;16.338;2023-02-11T08:56:13;5.10;94.30
40053;DHT22;25758;48.200;16.338;2023-02-11T08:58:40;5.20;94.40
40053;DHT22;25758;48.200;16.338;2023-02-11T09:01:13;5.30;94.20
40053;DHT22;25758;48.200;16.338;2023-02-11T09:03:39;5.30;93.90
40053;DHT22;25758;48.200;16.338;2023-02-11T09:06:08;5.30;93.80
40053;DHT22;25758;48.200;16.338;2023-02-11T09:08:36;5.40;93.80
40053;DHT22;25758;48.200;16.338;2023-02-11T09:11:02;5.50;93.80
40053;DHT22;25758;48.200;16.338;2023-02-11T09:13:28;5.50;93.80
40053;DHT22;25758;48.200;16.338;2023-02-11T09:15:54;5.60;94.00
40053;DHT22;25758;48.200;16.338;2023-02-11T09:18:20;5.50;93.60
40053;DHT22;25758;48.200;16.338;2023-02-11T09:20:45;5.60;93.60
40053;DHT22;25758;48.200;16.338;2023-02-11T09:23:11;5.60;93.60
40053;DHT22;25758;48.200;16.338;2023-02-11T09:25:40;5.70;93.40
40053;DHT22;25758;48.200;16.338;2023-02-11T09:28:07;5.70;93.20
40053;DHT22;25758;48.200;16.338;2023-02-11T09:30:35;5.90;93.30
40053;DHT22;25758;48.200;16.338;2023-02-11T09:33:00;6.00;92.80
40053;DHT22;25758;48.200;16.338;2023-02-11T09:35:26;6.00;92.70
40053;DHT22;25758;48.200;16.338;2023-02-11T09:37:52;6.10;92.80
40053;DHT22;25758;48.200;16.338;2023-02-11T09:40:17;6.10;92.60
40053;DHT22;25758;48.200;16.338;2023-02-11T09:42:51;6.00;92.60
40053;DHT22;25758;48.200;16.338;2023-02-11T09:45:28;6.00;92.50
40053;DHT22;25758;48.200;16.338;2023-02-11T09:50:54;6.00;92.60
40053;DHT22;25758;48.200;16.338;2023-02-11T09:53:25;5.90;92.80
40053;DHT22;25758;48.200;16.338;2023-02-11T09:55:53;5.90;93.00
40053;DHT22;25758;48.200;16.338;2023-02-11T10:03:47;5.90;93.20
40053;DHT22;25758;48.200;16.338;2023-02-11T10:06:18;5.90;93.10
40053;DHT22;25758;48.200;16.338;2023-02-11T10:14:20;6.20;92.60
40053;DHT22;25758;48.200;16.338;2023-02-11T10:22:46;6.40;92.10
40053;DHT22;25758;48.200;16.338;2023-02-11T10:25:24;6.40;91.80
40053;DHT22;25758;48.200;16.338;2023-02-11T10:27:51;6.50;91.50
40053;DHT22;25758;48.200;16.338;2023-02-11T10:33:41;6.50;91.50
40053;DHT22;25758;48.200;16.338;2023-02-11T10:36:11;6.50;91.30
40053;DHT22;25758;48.200;16.338;2023-02-11T10:38:37;6.50;91.40
40053;DHT22;25758;48.200;16.338;2023-02-11T10:41:03;6.60;91.10
40053;DHT22;25758;48.200;16.338;2023-02-11T10:43:30;6.60;91.10
40053;DHT22;25758;48.200;16.338;2023-02-11T10:45:57;6.60;90.90
40053;DHT22;25758;48.200;16.338;2023-02-11T10:48:46;6.60;90.90
40053;DHT22;25758;48.200;16.338;2023-02-11T10:51:33;6.60;90.80
40053;DHT22;25758;48.200;16.338;2023-02-11T10:56:41;6.60;90.50
40053;DHT22;25758;48.200;16.338;2023-02-11T11:01:56;6.70;90.40
40053;DHT22;25758;48.200;16.338;2023-02-11T11:10:05;7.00;88.50
40053;DHT22;25758;48.200;16.338;2023-02-11T11:15:18;7.20;88.50
40053;DHT22;25758;48.200;16.338;2023-02-11T11:17:49;7.20;87.60
40053;DHT22;25758;48.200;16.338;2023-02-11T11:20:22;7.20;87.40
40053;DHT22;25758;48.200;16.338;2023-02-11T11:22:50;7.10;86.70
40053;DHT22;25758;48.200;16.338;2023-02-11T11:25:27;7.10;87.50
40053;DHT22;25758;48.200;16.338;2023-02-11T11:27:59;7.10;86.80
40053;DHT22;25758;48.200;16.338;2023-02-11T11:30:37;7.10;86.30
40053;DHT22;25758;48.200;16.338;2023-02-11T11:33:03;7.10;86.50
40053;DHT22;25758;48.200;16.338;2023-02-11T11:35:30;7.20;86.40
40053;DHT22;25758;48.200;16.338;2023-02-11T11:38:03;7.20;85.80
40053;DHT22;25758;48.200;16.338;2023-02-11T11:40:33;7.30;86.60
40053;DHT22;25758;48.200;16.338;2023-02-11T11:45:31;7.40;84.10
40053;DHT22;25758;48.200;16.338;2023-02-11T11:48:59;7.40;83.80
40053;DHT22;25758;48.200;16.338;2023-02-11T11:51:08;7.40;83.60
40053;DHT22;25758;48.200;16.338;2023-02-11T11:53:36;7.30;83.10
40053;DHT22;25758;48.200;16.338;2023-02-11T11:56:25;7.40;82.90
40053;DHT22;25758;48.200;16.338;2023-02-11T11:58:51;7.40;82.30
40053;DHT22;25758;48.200;16.338;2023-02-11T12:13:10;7.40;82.10
40053;DHT22;25758;48.200;16.338;2023-02-11T12:15:57;7.40;82.10
40053;DHT22;25758;48.200;16.338;2023-02-11T12:18:59;7.40;82.50
40053;DHT22;25758;48.200;16.338;2023-02-11T12:21:39;7.40;83.30
40053;DHT22;25758;48.200;16.338;2023-02-11T12:27:01;7.40;85.10
40053;DHT22;25758;48.200;16.338;2023-02-11T12:38:07;7.30;84.20
40053;DHT22;25758;48.200;16.338;2023-02-11T12:40:40;7.30;84.00
40053;DHT22;25758;48.200;16.338;2023-02-11T12:43:19;7.30;83.10
40053;DHT22;25758;48.200;16.338;2023-02-11T12:59:48;7.50;80.00
40053;DHT22;25758;48.200;16.338;2023-02-11T13:02:44;7.60;80.10
40053;DHT22;25758;48.200;16.338;2023-02-11T13:05:37;7.60;79.50
40053;DHT22;25758;48.200;16.338;2023-02-11T13:08:28;7.50;79.10
40053;DHT22;25758;48.200;16.338;2023-02-11T13:10:57;7.50;78.80
40053;DHT22;25758;48.200;16.338;2023-02-11T13:19:23;7.50;79.00
40053;DHT22;25758;48.200;16.338;2023-02-11T13:22:15;7.40;79.50
40053;DHT22;25758;48.200;16.338;2023-02-11T13:24:47;7.50;79.90
40053;DHT22;25758;48.200;16.338;2023-02-11T13:27:41;7.40;80.20
40053;DHT22;25758;48.200;16.338;2023-02-11T13:35:29;7.30;81.40
40053;DHT22;25758;48.200;16.338;2023-02-11T13:37:57;7.20;81.70
40053;DHT22;25758;48.200;16.338;2023-02-11T13:42:59;7.30;82.20
40053;DHT22;25758;48.200;16.338;2023-02-11T13:45:44;7.30;82.20
40053;DHT22;25758;48.200;16.338;2023-02-11T13:48:27;7.30;82.70
40053;DHT22;25758;48.200;16.338;2023-02-11T13:51:05;7.30;82.50
40053;DHT22;25758;48.200;16.338;2023-02-11T13:53:46;7.40;82.90
40053;DHT22;25758;48.200;16.338;2023-02-11T13:56:30;7.30;82.80
40053;DHT22;25758;48.200;16.338;2023-02-11T13:58:57;7.30;82.90
40053;DHT22;25758;48.200;16.338;2023-02-11T14:01:43;7.30;83.00
40053;DHT22;25758;48.200;16.338;2023-02-11T14:08:12;7.30;83.30
40053;DHT22;25758;48.200;16.338;2023-02-11T14:13:36;7.30;83.80
40053;DHT22;25758;48.200;16.338;2023-02-11T14:16:22;7.30;83.80
40053;DHT22;25758;48.200;16.338;2023-02-11T14:23:52;7.10;84.50
40053;DHT22;25758;48.200;16.338;2023-02-11T14:28:58;7.10;85.40
40053;DHT22;25758;48.200;16.338;2023-02-11T14:37:46;7.20;85.70
40053;DHT22;25758;48.200;16.338;2023-02-11T14:41:06;7.20;86.00
40053;DHT22;25758;48.200;16.338;2023-02-11T14:43:39;7.00;86.40
40053;DHT22;25758;48.200;16.338;2023-02-11T14:46:07;7.00;87.10
40053;DHT22;25758;48.200;16.338;2023-02-11T14:48:35;7.00;87.70
40053;DHT22;25758;48.200;16.338;2023-02-11T14:51:50;7.00;88.10
40053;DHT22;25758;48.200;16.338;2023-02-11T14:54:03;6.90;88.40
40053;DHT22;25758;48.200;16.338;2023-02-11T14:56:35;6.90;89.00
40053;DHT22;25758;48.200;16.338;2023-02-11T14:59:01;6.80;89.60
40053;DHT22;25758;48.200;16.338;2023-02-11T15:01:30;6.80;90.10
40053;DHT22;25758;48.200;16.338;2023-02-11T15:04:01;6.70;90.30
40053;DHT22;25758;48.200;16.338;2023-02-11T15:06:41;6.80;90.40
40053;DHT22;25758;48.200;16.338;2023-02-11T15:09:16;6.80;90.70
40053;DHT22;25758;48.200;16.338;2023-02-11T15:11:47;6.80;91.10
40053;DHT22;25758;48.200;16.338;2023-02-11T15:14:29;6.80;91.30
40053;DHT22;25758;48.200;16.338;2023-02-11T15:17:01;6.80;91.60
40053;DHT22;25758;48.200;16.338;2023-02-11T15:19:33;6.70;91.90
40053;DHT22;25758;48.200;16.338;2023-02-11T15:22:05;6.70;92.20
40053;DHT22;25758;48.200;16.338;2023-02-11T15:24:33;6.80;92.40
40053;DHT22;25758;48.200;16.338;2023-02-11T15:27:10;6.70;92.50
40053;DHT22;25758;48.200;16.338;2023-02-11T15:29:41;6.70;92.80
40053;DHT22;25758;48.200;16.338;2023-02-11T15:32:15;6.60;93.00
40053;DHT22;25758;48.200;16.338;2023-02-11T15:34:42;6.70;93.20
40053;DHT22;25758;48.200;16.338;2023-02-11T15:37:26;6.70;93.50
40053;DHT22;25758;48.200;16.338;2023-02-11T15:39:54;6.70;93.70
40053;DHT22;25758;48.200;16.338;2023-02-11T15:42:32;6.60;93.80
40053;DHT22;25758;48.200;16.338;2023-02-11T15:47:51;6.50;94.30
40053;DHT22;25758;48.200;16.338;2023-02-11T15:50:30;6.60;94.70
40053;DHT22;25758;48.200;16.338;2023-02-11T15:55:40;6.60;95.10
40053;DHT22;25758;48.200;16.338;2023-02-11T15:58:08;6.50;95.30
40053;DHT22;25758;48.200;16.338;2023-02-11T16:00:43;6.50;95.60
40053;DHT22;25758;48.200;16.338;2023-02-11T16:03:20;6.50;95.90
40053;DHT22;25758;48.200;16.338;2023-02-11T16:05:46;6.50;96.30
40053;DHT22;25758;48.200;16.338;2023-02-11T16:11:02;6.40;96.60
40053;DHT22;25758;48.200;16.338;2023-02-11T16:13:45;6.50;96.80
40053;DHT22;25758;48.200;16.338;2023-02-11T16:16:23;6.40;96.90
40053;DHT22;25758;48.200;16.338;2023-02-11T16:18:54;6.40;97.20
40053;DHT22;25758;48.200;16.338;2023-02-11T16:21:29;6.40;97.90
40053;DHT22;25758;48.200;16.338;2023-02-11T16:24:13;6.30;97.80
40053;DHT22;25758;48.200;16.338;2023-02-11T16:26:49;6.40;98.00
40053;DHT22;25758;48.200;16.338;2023-02-11T16:29:27;6.30;98.20
40053;DHT22;25758;48.200;16.338;2023-02-11T16:32:20;6.30;98.50
40053;DHT22;25758;48.200;16.338;2023-02-11T16:34:47;6.30;98.50
40053;DHT22;25758;48.200;16.338;2023-02-11T16:37:14;6.30;98.70
40053;DHT22;25758;48.200;16.338;2023-02-11T16:39:40;6.30;98.90
40053;DHT22;25758;48.200;16.338;2023-02-11T16:42:06;6.30;99.10
40053;DHT22;25758;48.200;16.338;2023-02-11T16:44:33;6.30;99.20
40053;DHT22;25758;48.200;16.338;2023-02-11T16:47:00;6.30;99.50
40053;DHT22;25758;48.200;16.338;2023-02-11T16:49:37;6.30;99.60
40053;DHT22;25758;48.200;16.338;2023-02-11T16:52:07;6.30;99.80
40053;DHT22;25758;48.200;16.338;2023-02-11T16:54:34;6.30;99.90
40053;DHT22;25758;48.200;16.338;2023-02-11T16:57:01;6.30;99.90
40053;DHT22;25758;48.200;16.338;2023-02-11T16:59:27;6.30;99.90
40053;DHT22;25758;48.200;16.338;2023-02-11T17:01:54;6.20;99.90
40053;DHT22;25758;48.200;16.338;2023-02-11T17:04:26;6.20;99.90
40053;DHT22;25758;48.200;16.338;2023-02-11T17:06:53;6.30;99.90
40053;DHT22;25758;48.200;16.338;2023-02-11T17:09:22;6.30;99.90
40053;DHT22;25758;48.200;16.338;2023-02-11T17:11:50;6.30;99.90
40053;DHT22;25758;48.200;16.338;2023-02-11T17:14:17;6.30;99.90
40053;DHT22;25758;48.200;16.338;2023-02-11T17:16:44;6.30;99.90
40053;DHT22;25758;48.200;16.338;2023-02-11T17:19:13;6.30;99.90
40053;DHT22;25758;48.200;16.338;2023-02-11T17:21:44;6.20;99.90
40053;DHT22;25758;48.200;16.338;2023-02-11T17:24:10;6.20;99.90
40053;DHT22;25758;48.200;16.338;2023-02-11T17:26:37;6.30;99.90
40053;DHT22;25758;48.200;16.338;2023-02-11T17:29:07;6.20;99.90
40053;DHT22;25758;48.200;16.338;2023-02-11T17:31:34;6.20;99.90
40053;DHT22;25758;48.200;16.338;2023-02-11T17:34:01;6.20;99.90
40053;DHT22;25758;48.200;16.338;2023-02-11T17:36:28;6.20;99.90
40053;DHT22;25758;48.200;16.338;2023-02-11T17:38:56;6.20;99.90
40053;DHT22;25758;48.200;16.338;2023-02-11T17:41:23;6.20;99.90
40053;DHT22;25758;48.200;16.338;2023-02-11T17:43:50;6.20;99.90
40053;DHT22;25758;48.200;16.338;2023-02-11T17:46:18;6.10;99.90
40053;DHT22;25758;48.200;16.338;2023-02-11T17:48:45;6.20;99.90
40053;DHT22;25758;48.200;16.338;2023-02-11T17:51:28;6.20;99.90
40053;DHT22;25758;48.200;16.338;2023-02-11T17:53:57;6.20;99.90
40053;DHT22;25758;48.200;16.338;2023-02-11T17:56:24;6.20;99.90
40053;DHT22;25758;48.200;16.338;2023-02-11T17:58:50;6.20;99.90
40053;DHT22;25758;48.200;16.338;2023-02-11T18:01:18;6.20;99.90
40053;DHT22;25758;48.200;16.338;2023-02-11T18:03:44;6.20;99.90
40053;DHT22;25758;48.200;16.338;2023-02-11T18:06:11;6.20;99.90
40053;DHT22;25758;48.200;16.338;2023-02-11T18:08:37;6.30;99.90
40053;DHT22;25758;48.200;16.338;2023-02-11T18:11:07;6.20;99.90
40053;DHT22;25758;48.200;16.338;2023-02-11T18:13:36;6.30;99.90
40053;DHT22;25758;48.200;16.338;2023-02-11T18:16:04;6.30;99.80
40053;DHT22;25758;48.200;16.338;2023-02-11T18:18:31;6.30;99.80